Terminal Aerodrome Forecast
Issued by NWS

Home | Current Version | Previous Version | Text Only | Print | Product List | Glossary On
Versions: 1 2 3 4 5 6 7 8 9 10 11 12 13 14 15 16 17
000
FTUS42 KMLB 221234 AAA
TAFTIX
TAF AMD
KTIX 221234Z 2213/2312 01007KT P6SM SCT035 SCT250
     FM221700 04011KT P6SM SCT035 BKN250
     FM230600 04006KT P6SM VCSH SCT015 BKN030=

USA.gov is the U.S. government's official web portal to all federal, state and local government web resources and services.